createdAt,value
2022-10-14T04:00:34.592Z,30.00
2022-10-14T04:11:39.435Z,21.00
2022-10-14T04:22:39.308Z,17.10
2022-10-14T04:33:39.200Z,20.40
2022-10-14T04:44:39.073Z,26.30
2022-10-14T04:55:38.942Z,28.20
2022-10-14T05:06:38.816Z,19.20
2022-10-14T05:17:38.693Z,21.90
2022-10-14T05:28:38.678Z,18.60
2022-10-14T05:39:38.469Z,16.60
2022-10-14T05:50:38.387Z,22.10
2022-10-14T06:01:38.216Z,24.60
2022-10-14T06:12:38.237Z,16.40
2022-10-14T06:23:38.006Z,11.00
2022-10-14T06:34:37.854Z,12.50
2022-10-14T06:45:37.703Z,15.80
2022-10-14T06:56:37.576Z,13.20
2022-10-14T07:07:37.446Z,17.60
2022-10-14T07:18:37.379Z,10.20
2022-10-14T07:29:37.198Z,11.60
2022-10-14T07:40:37.075Z,12.20
2022-10-14T07:51:36.942Z,13.20
2022-10-14T08:02:36.812Z,21.60
2022-10-14T08:13:39.396Z,14.60
2022-10-14T08:24:36.553Z,10.30
2022-10-14T08:35:36.440Z,10.90
2022-10-14T08:46:36.354Z,11.30
2022-10-14T08:57:36.180Z,9.10
2022-10-14T09:08:36.054Z,12.20
2022-10-14T09:19:35.933Z,5.50
2022-10-14T09:30:35.809Z,8.30
2022-10-14T09:41:35.709Z,5.80
2022-10-14T09:52:35.572Z,9.00
2022-10-14T10:03:35.436Z,11.90
2022-10-14T10:14:35.302Z,9.80
2022-10-14T10:25:35.308Z,9.70
2022-10-14T10:36:35.058Z,17.90
2022-10-14T10:47:34.940Z,5.90
2022-10-14T10:58:34.820Z,5.60
2022-10-14T11:09:34.698Z,4.70
2022-10-14T11:20:34.556Z,8.00
2022-10-14T11:31:34.440Z,4.90
2022-10-14T11:42:34.310Z,4.30
2022-10-14T11:53:34.242Z,7.10
2022-10-14T12:04:34.052Z,7.20
2022-10-14T12:15:33.936Z,5.40
2022-10-14T12:26:33.812Z,6.00
2022-10-14T12:37:33.904Z,7.60
2022-10-14T12:48:33.562Z,4.90
2022-10-14T12:59:33.427Z,4.30
2022-10-14T13:10:33.303Z,5.50
2022-10-14T13:21:33.178Z,8.00
2022-10-14T13:32:33.579Z,4.50
2022-10-14T13:43:32.932Z,4.50
2022-10-14T13:54:32.841Z,4.30
2022-10-14T14:05:32.678Z,6.80
2022-10-14T14:16:32.621Z,3.30
2022-10-14T14:27:32.473Z,5.90
2022-10-14T14:38:33.311Z,10.20
2022-10-14T14:49:32.178Z,10.20
2022-10-14T15:00:32.062Z,6.50
2022-10-14T15:11:31.936Z,6.30
2022-10-14T15:22:32.190Z,8.80
2022-10-14T15:33:31.677Z,6.20
2022-10-14T15:44:31.613Z,4.40
2022-10-14T15:55:31.452Z,4.80
2022-10-14T16:06:31.304Z,3.40
2022-10-14T16:17:31.175Z,3.10
2022-10-14T16:28:31.130Z,4.20
2022-10-14T16:39:30.927Z,3.70
2022-10-14T16:50:30.801Z,4.60
2022-10-14T17:01:30.745Z,3.70
2022-10-14T17:12:30.583Z,2.90
2022-10-14T17:23:30.433Z,4.00
2022-10-14T17:34:30.300Z,3.50
2022-10-14T17:45:30.217Z,5.10
2022-10-14T17:56:30.064Z,6.00
2022-10-14T18:07:29.940Z,3.80
2022-10-14T18:18:29.818Z,4.20
2022-10-14T18:29:29.676Z,9.80
2022-10-14T18:40:29.554Z,4.60
2022-10-14T18:51:29.442Z,2.30
2022-10-14T19:02:29.314Z,9.10
2022-10-14T19:13:29.209Z,2.00
2022-10-14T19:24:29.055Z,2.80
2022-10-14T19:35:28.955Z,6.80
2022-10-14T19:46:28.798Z,4.10
2022-10-14T19:57:28.677Z,2.90
2022-10-14T20:08:28.558Z,2.90
2022-10-14T20:19:28.432Z,2.10
2022-10-14T20:30:28.296Z,2.50
2022-10-14T20:41:28.190Z,2.60
2022-10-14T20:52:28.058Z,1.60
